Meridian — EI6085 — position and weather

sailwx.info

Track history (hours):
 
Tides and Currents Weather Stations Pressure Air Temp Water Temp Dewpoint Dewpoint Depression Visibility Wind Speed Wind Dir Waves Ship Positions

Meridian

Last reported at 2016-Jul-12 09:06 UTC. Time now 2016-Aug-27 04:45 UTC.
Position N 54°38' W 008°27'.
Warning: this ship's position is 45 days out of date.

Length 12 m.

Type: Fishing. MMSI: 250107450.

Date/timePositionNaut miles runAvg speedWind from/ knotsBaromVisibWave heightAir tempDewpointWater temp
2016-Jul-12 09:06N 54°38' W 008°27'0 0.0
2016-Jul-10 16:33N 54°38' W 008°27'4 0.5
2016-Jul-10 08:30N 54°34' W 008°30'4 4.3
2016-Jul-10 07:32N 54°38' W 008°27'0 0.0
2016-Jul-09 15:33N 54°38' W 008°27'4 4.2
2016-Jul-09 14:28N 54°34' W 008°30'0 0.1
2016-Jul-09 12:25N 54°34' W 008°30'0 0.4
2016-Jul-09 11:33N 54°34' W 008°30'0 0.1
2016-Jul-09 10:33N 54°34' W 008°30'0 0.1
2016-Jul-09 09:20N 54°34' W 008°30'1 0.9
2016-Jul-09 08:29N 54°35' W 008°29'4 4.2
2016-Jul-09 07:33N 54°38' W 008°27'0 0.0
2016-Jul-08 15:31N 54°38' W 008°27'1 1.5
2016-Jul-08 14:33N 54°36' W 008°27'3 3.2
2016-Jul-08 13:32N 54°36' W 008°33'0 0.2
2016-Jul-08 12:18N 54°36' W 008°32'4 5.1
2016-Jul-08 11:32N 54°38' W 008°27'0 0.0
2016-Jul-07 15:11N 54°38' W 008°27'1 2.2
2016-Jul-07 14:33N 54°37' W 008°27'0 0.1
2016-Jul-07 13:33N 54°37' W 008°27'1 0.8
2016-Jul-07 12:33N 54°37' W 008°26'2 1.7
2016-Jul-07 11:33N 54°36' W 008°24'3 2.7
2016-Jul-07 10:33N 54°35' W 008°28'2 1.6
2016-Jul-07 09:33N 54°37' W 008°27'2 1.5
2016-Jul-07 08:33N 54°38' W 008°27'0 0.0
2016-Jul-05 10:33N 54°38' W 008°27'0 0.0
2016-Jul-05 09:33N 54°38' W 008°27'0 0.0
2016-Jul-03 16:25N 54°38' W 008°27'4 4.2
2016-Jul-03 15:33N 54°34' W 008°29'2 1.8
2016-Jul-03 14:32N 54°35' W 008°25'0 0.1
2016-Jul-03 13:33N 54°35' W 008°25'0 0.1
2016-Jul-03 12:33N 54°35' W 008°25'3 2.4
2016-Jul-03 11:26N 54°34' W 008°30'3 3.0
2016-Jul-03 10:32N 54°35' W 008°34'1 0.5
2016-Jul-03 09:24N 54°35' W 008°33'3 3.3
2016-Jul-03 08:27N 54°36' W 008°28'2 2.3
2016-Jul-03 07:32N 54°38' W 008°27'0 0.0
2016-Jul-02 15:19N 54°38' W 008°27'2 2.1
2016-Jul-02 14:33N 54°36' W 008°27'1 1.2
2016-Jul-02 13:29N 54°36' W 008°29'2 1.8
2016-Jul-02 12:32N 54°35' W 008°32'2 1.9
2016-Jul-02 11:33N 54°36' W 008°35'1 1.0
2016-Jul-02 10:33N 54°37' W 008°33'2 1.6
2016-Jul-02 09:33N 54°36' W 008°30'  
Track history (hours):
 
Tides and Currents Weather Stations Pressure Air Temp Water Temp Dewpoint Dewpoint Depression Visibility Wind Speed Wind Dir Waves Ship Positions

Meridian

Last reported at 2016-Jul-12 09:06 UTC. Time now 2016-Aug-27 04:45 UTC.
Position N 54°38' W 008°27'.
Warning: this ship's position is 45 days out of date.

Length 12 m.

Type: Fishing. MMSI: 250107450.

Date/timePositionNaut miles runAvg speedWind from/ knotsBaromVisibWave heightAir tempDewpointWater temp
2016-Jul-12 09:06N 54°38' W 008°27'0 0.0
2016-Jul-10 16:33N 54°38' W 008°27'4 0.5
2016-Jul-10 08:30N 54°34' W 008°30'4 4.3
2016-Jul-10 07:32N 54°38' W 008°27'0 0.0
2016-Jul-09 15:33N 54°38' W 008°27'4 4.2
2016-Jul-09 14:28N 54°34' W 008°30'0 0.1
2016-Jul-09 12:25N 54°34' W 008°30'0 0.4
2016-Jul-09 11:33N 54°34' W 008°30'0 0.1
2016-Jul-09 10:33N 54°34' W 008°30'0 0.1
2016-Jul-09 09:20N 54°34' W 008°30'1 0.9
2016-Jul-09 08:29N 54°35' W 008°29'4 4.2
2016-Jul-09 07:33N 54°38' W 008°27'0 0.0
2016-Jul-08 15:31N 54°38' W 008°27'1 1.5
2016-Jul-08 14:33N 54°36' W 008°27'3 3.2
2016-Jul-08 13:32N 54°36' W 008°33'0 0.2
2016-Jul-08 12:18N 54°36' W 008°32'4 5.1
2016-Jul-08 11:32N 54°38' W 008°27'0 0.0
2016-Jul-07 15:11N 54°38' W 008°27'1 2.2
2016-Jul-07 14:33N 54°37' W 008°27'0 0.1
2016-Jul-07 13:33N 54°37' W 008°27'1 0.8
2016-Jul-07 12:33N 54°37' W 008°26'2 1.7
2016-Jul-07 11:33N 54°36' W 008°24'3 2.7
2016-Jul-07 10:33N 54°35' W 008°28'2 1.6
2016-Jul-07 09:33N 54°37' W 008°27'2 1.5
2016-Jul-07 08:33N 54°38' W 008°27'0 0.0
2016-Jul-05 10:33N 54°38' W 008°27'0 0.0
2016-Jul-05 09:33N 54°38' W 008°27'0 0.0
2016-Jul-03 16:25N 54°38' W 008°27'4 4.2
2016-Jul-03 15:33N 54°34' W 008°29'2 1.8
2016-Jul-03 14:32N 54°35' W 008°25'0 0.1
2016-Jul-03 13:33N 54°35' W 008°25'0 0.1
2016-Jul-03 12:33N 54°35' W 008°25'3 2.4
2016-Jul-03 11:26N 54°34' W 008°30'3 3.0
2016-Jul-03 10:32N 54°35' W 008°34'1 0.5
2016-Jul-03 09:24N 54°35' W 008°33'3 3.3
2016-Jul-03 08:27N 54°36' W 008°28'2 2.3
2016-Jul-03 07:32N 54°38' W 008°27'0 0.0
2016-Jul-02 15:19N 54°38' W 008°27'2 2.1
2016-Jul-02 14:33N 54°36' W 008°27'1 1.2
2016-Jul-02 13:29N 54°36' W 008°29'2 1.8
2016-Jul-02 12:32N 54°35' W 008°32'2 1.9
2016-Jul-02 11:33N 54°36' W 008°35'1 1.0
2016-Jul-02 10:33N 54°37' W 008°33'2 1.6
2016-Jul-02 09:33N 54°36' W 008°30'  

Dump ship's entire track history